Airfield :







YOU CAN JOIN US ON...

 
LOGIN :

Register | Disclaimer

   EN    FR    IT 

 









Legend :    VFR   Marginal VFR   IFR   Intensive IFR   Very Intensive IFR
Visi :
Ceiling :
>= 8 km
>= 3000ft
5 to 8 km
1000 to 3000 ft
1500m to 5 km
500 to 1000 ft
800 to 1500m
200 to 500 ft
< 800m
< 200 ft
Symbols :   Thunderstorms  Fog  Heavy snow  Heavy precipitations  Wind > 20 kt






- Airport Elevation : 787 ft
- IATA code : RUT


KRUT - Rutland - Southern Vermont Regional

CURRENT METAR :
  • 120456Z AUTO 28013G19KT 10SM BKN042 M06/M13 A3037 RMK AO2 SLP292 T10561128 400001056 FZRANO $

EXPIRED METARs :
  • 120356Z AUTO 30013G21KT 10SM FEW036 SCT044 OVC060 M04/M12 A3033 RMK AO2 PK WND 28026/0300 SNE45 SLP276 P0000 T10441117 FZRANO $
  • 120343Z AUTO 29013G25KT 9SM -SN FEW026 SCT036 OVC055 M04/M11 A3031 RMK AO2 PK WND 28026/0300 P0000 FZRANO $
  • 120316Z AUTO 29012G25KT 3SM -SN SCT011 BKN017 OVC032 M04/M08 A3030 RMK AO2 PK WND 28026/0300 PRESRR P0000 FZRANO $
  • 120301Z AUTO 29021G26KT 260V330 1 3/4SM -SN FEW009 BKN031 OVC048 M04/M08 A3028 RMK AO2 PK WND 28026/0300 P0000 FZRANO $
  • 120256Z AUTO 30016G22KT 6SM -SN FEW020 BKN039 OVC048 M03/M10 A3028 RMK AO2 SNB53 PRESRR SLP259 P0000 60000 T10281100 53028 FZRANO $

TAF KRUT
Valid from the 12 at 00:00 until the 13 at 00:00 UTC


112331Z 1200/1224 23009KT P6SM SCT100
FM120200 25010KT P6SM -SHSN SCT040 BKN070
TEMPO 1203/1204 26012G22KT 2SM -SHSN BR BLSN BKN025 OVC040
FM120400 26011G20KT P6SM SCT040 BKN070
FM121000 27009KT P6SM FEW040 SCT070
FM121900 VRB05KT P6SM SCT060



MET'MAP, your aeronautical weather chart ! - Copyright ORBIFLY December 2007 - Disclaimer

ORBIFLY MET'MAP TEAM :

Programming & Development : Alexandra Zaïnal
Concept & original design : Baudouin d'Aumeries
Assistance for programming : Marc-Olivier Méhu
Technical & hardware support : Manuel Goepfert

Contact : metmap@orbifly.com




SOURCES & CREDITS :

   NOAA